createdAt,value
2023-11-22T00:01:35.136Z,3.77
2023-11-22T00:04:02.451Z,4.00
2023-11-22T00:06:30.308Z,4.10
2023-11-22T00:08:56.880Z,3.70
2023-11-22T00:11:23.507Z,3.54
2023-11-22T00:13:50.287Z,3.31
2023-11-22T00:16:16.957Z,2.89
2023-11-22T00:18:43.692Z,2.41
2023-11-22T00:21:10.340Z,2.39
2023-11-22T00:23:37.174Z,2.13
2023-11-22T00:26:03.917Z,2.08
2023-11-22T00:28:30.568Z,2.13
2023-11-22T00:30:57.496Z,2.03
2023-11-22T00:33:24.345Z,1.85
2023-11-22T00:35:50.988Z,1.95
2023-11-22T00:38:17.657Z,2.20
2023-11-22T00:40:44.354Z,2.12
2023-11-22T00:43:10.961Z,2.14
2023-11-22T00:45:37.760Z,2.25
2023-11-22T00:48:04.571Z,2.33
2023-11-22T00:50:31.241Z,2.34
2023-11-22T00:52:57.942Z,2.59
2023-11-22T00:55:24.615Z,2.64
2023-11-22T00:57:51.241Z,3.12
2023-11-22T01:00:17.861Z,3.19
2023-11-22T01:02:44.665Z,3.30
2023-11-22T01:05:11.389Z,3.51
2023-11-22T01:07:38.114Z,3.58
2023-11-22T01:10:04.766Z,3.35
2023-11-22T01:12:31.576Z,3.69
2023-11-22T01:14:58.365Z,3.59
2023-11-22T01:17:24.972Z,3.72
2023-11-22T01:19:51.592Z,3.66
2023-11-22T01:22:18.413Z,3.64
2023-11-22T01:24:45.227Z,3.60
2023-11-22T01:27:11.932Z,3.70
2023-11-22T01:29:38.558Z,3.26
2023-11-22T01:32:05.314Z,3.72
2023-11-22T01:34:31.973Z,3.79
2023-11-22T01:36:58.554Z,3.86
2023-11-22T01:39:25.131Z,3.71
2023-11-22T01:41:51.705Z,3.82
2023-11-22T01:44:18.284Z,3.79
2023-11-22T01:46:44.877Z,3.94
2023-11-22T01:49:11.589Z,4.13
2023-11-22T01:51:38.165Z,4.12
2023-11-22T01:54:04.724Z,4.24
2023-11-22T01:56:31.303Z,4.24
2023-11-22T01:58:59.080Z,3.92
2023-11-22T02:01:25.910Z,4.19
2023-11-22T02:03:52.649Z,4.33
2023-11-22T02:06:19.266Z,4.12
2023-11-22T02:08:45.831Z,3.86
2023-11-22T02:11:12.477Z,3.76
2023-11-22T02:13:39.041Z,3.84
2023-11-22T02:16:05.659Z,3.79
2023-11-22T02:18:32.346Z,3.67
2023-11-22T02:20:58.953Z,3.96
2023-11-22T02:23:25.598Z,4.02
2023-11-22T02:25:52.188Z,3.89
2023-11-22T02:28:18.757Z,4.10
2023-11-22T02:30:46.592Z,3.92
2023-11-22T02:33:14.663Z,4.01
2023-11-22T02:35:41.364Z,3.90
2023-11-22T02:38:07.982Z,4.04
2023-11-22T02:40:34.612Z,4.03
2023-11-22T02:43:01.165Z,4.00
2023-11-22T02:45:27.743Z,4.00
2023-11-22T02:47:54.593Z,4.22
2023-11-22T02:50:21.243Z,4.15
2023-11-22T02:52:47.856Z,4.40
2023-11-22T02:55:14.508Z,4.13
2023-11-22T02:57:41.081Z,4.70
2023-11-22T03:00:07.770Z,4.34
2023-11-22T03:02:34.635Z,4.63
2023-11-22T03:05:01.445Z,4.42
2023-11-22T03:07:28.055Z,4.68
2023-11-22T03:09:54.679Z,4.45
2023-11-22T03:12:21.289Z,4.43
2023-11-22T03:14:48.026Z,4.31
2023-11-22T03:17:14.707Z,4.29
2023-11-22T03:19:41.407Z,4.24
2023-11-22T03:22:09.614Z,4.60
2023-11-22T03:24:36.173Z,4.34
2023-11-22T03:27:02.788Z,4.05
2023-11-22T03:29:29.415Z,4.13
2023-11-22T03:31:56.015Z,4.24
2023-11-22T03:34:22.639Z,4.51
2023-11-22T03:36:49.280Z,4.43
2023-11-22T03:39:15.849Z,4.36
2023-11-22T03:41:42.430Z,4.17
2023-11-22T03:44:09.076Z,4.11
2023-11-22T03:46:35.698Z,4.22
2023-11-22T03:49:02.335Z,4.29
2023-11-22T03:51:28.925Z,4.25
2023-11-22T03:53:55.528Z,4.51
2023-11-22T03:56:22.168Z,4.36
2023-11-22T03:58:48.780Z,4.30
2023-11-22T04:01:15.446Z,4.16
2023-11-22T04:03:42.229Z,4.34
2023-11-22T04:06:09.014Z,4.58
2023-11-22T04:08:35.627Z,4.52
2023-11-22T04:11:02.328Z,4.39
2023-11-22T04:13:28.968Z,4.66
2023-11-22T04:15:56.094Z,4.56
2023-11-22T04:18:23.255Z,4.52
2023-11-22T04:20:50.172Z,4.72
2023-11-22T04:23:16.805Z,4.84
2023-11-22T04:25:43.421Z,4.74
2023-11-22T04:28:10.060Z,4.89
2023-11-22T04:30:36.661Z,4.62
2023-11-22T04:33:03.413Z,4.86
2023-11-22T04:35:30.123Z,4.82
2023-11-22T04:37:56.677Z,4.64
2023-11-22T04:40:23.265Z,4.49
2023-11-22T04:42:49.825Z,4.34
2023-11-22T04:45:16.440Z,4.65
2023-11-22T04:47:43.453Z,4.59
2023-11-22T04:50:10.288Z,4.71
2023-11-22T04:52:36.920Z,4.71
2023-11-22T04:55:03.589Z,4.90
2023-11-22T04:57:30.177Z,5.02
2023-11-22T04:59:56.785Z,5.01
2023-11-22T05:02:23.672Z,5.08
2023-11-22T05:04:50.271Z,4.88
2023-11-22T05:07:16.865Z,4.62
2023-11-22T05:09:43.517Z,4.74
2023-11-22T05:12:11.483Z,4.80
2023-11-22T05:14:38.193Z,4.72
2023-11-22T05:17:05.008Z,4.90
2023-11-22T05:19:31.626Z,4.62
2023-11-22T05:21:58.245Z,5.02
2023-11-22T05:24:24.894Z,4.79
2023-11-22T05:26:51.490Z,4.86
2023-11-22T05:29:18.132Z,5.25
2023-11-22T05:31:44.753Z,5.23
2023-11-22T05:34:11.376Z,4.97
2023-11-22T05:36:37.989Z,5.45
2023-11-22T05:39:04.548Z,5.28
2023-11-22T05:41:31.209Z,5.30
2023-11-22T05:43:57.839Z,5.16
2023-11-22T05:46:24.402Z,5.23
2023-11-22T05:48:50.986Z,5.52
2023-11-22T05:51:17.701Z,5.24
2023-11-22T05:53:44.353Z,5.51
2023-11-22T05:56:10.962Z,5.56
2023-11-22T05:58:37.551Z,5.20
2023-11-22T06:01:04.166Z,5.26
2023-11-22T06:03:30.810Z,5.59
2023-11-22T06:05:57.464Z,5.52
2023-11-22T06:08:24.090Z,5.61
2023-11-22T06:10:50.679Z,5.34
2023-11-22T06:13:17.266Z,5.42
2023-11-22T06:15:43.850Z,5.23
2023-11-22T06:18:10.497Z,5.36
2023-11-22T06:20:37.239Z,5.30
2023-11-22T06:23:03.991Z,5.46
2023-11-22T06:25:30.706Z,5.83
2023-11-22T06:27:59.500Z,5.90
2023-11-22T06:30:26.237Z,6.25
2023-11-22T06:32:52.899Z,6.27
2023-11-22T06:35:19.535Z,6.33
2023-11-22T06:37:46.173Z,6.20
2023-11-22T06:40:14.905Z,6.36
2023-11-22T06:42:41.516Z,6.52
2023-11-22T06:45:08.129Z,6.32
2023-11-22T06:47:34.850Z,6.20
2023-11-22T06:50:01.532Z,6.21
2023-11-22T06:52:28.132Z,6.41
2023-11-22T06:54:54.728Z,6.65
2023-11-22T06:57:21.330Z,6.49
2023-11-22T06:59:50.709Z,6.40
2023-11-22T07:02:17.532Z,6.35
2023-11-22T07:04:44.207Z,6.75
2023-11-22T07:07:10.781Z,6.54
2023-11-22T07:09:37.403Z,6.61
2023-11-22T07:12:03.956Z,6.31
2023-11-22T07:14:30.624Z,6.45
2023-11-22T07:16:57.644Z,6.13
2023-11-22T07:19:24.251Z,5.84
2023-11-22T07:21:50.883Z,6.47
2023-11-22T07:24:17.502Z,6.04
2023-11-22T07:26:44.197Z,6.30
2023-11-22T07:29:10.921Z,6.10
2023-11-22T07:31:39.847Z,6.17
2023-11-22T07:34:06.474Z,5.56
2023-11-22T07:36:35.089Z,5.45
2023-11-22T07:39:01.904Z,5.47
2023-11-22T07:41:28.546Z,5.02
2023-11-22T07:43:55.211Z,9.95
2023-11-22T07:46:21.954Z,9.34
2023-11-22T07:48:48.865Z,6.33
2023-11-22T07:51:15.557Z,5.30
2023-11-22T07:53:42.329Z,5.30
2023-11-22T07:56:08.979Z,5.13
2023-11-22T07:58:35.619Z,5.17
2023-11-22T08:01:02.224Z,5.08
2023-11-22T08:03:28.900Z,4.90
2023-11-22T08:05:55.661Z,4.40
2023-11-22T08:08:22.386Z,4.13
2023-11-22T08:10:48.998Z,4.39
2023-11-22T08:13:16.040Z,4.35
2023-11-22T08:15:42.801Z,4.22
2023-11-22T08:18:09.466Z,4.39
2023-11-22T08:20:36.099Z,4.13
2023-11-22T08:23:02.787Z,7.17
2023-11-22T08:25:29.456Z,7.04
2023-11-22T08:27:56.066Z,4.09
2023-11-22T08:30:22.762Z,3.66
2023-11-22T08:32:49.499Z,3.76
2023-11-22T08:35:16.203Z,3.78
2023-11-22T08:37:43.199Z,3.72
2023-11-22T08:40:09.956Z,3.73
2023-11-22T08:42:36.502Z,4.00
2023-11-22T08:45:03.397Z,4.13
2023-11-22T08:47:30.175Z,3.92
2023-11-22T08:49:56.814Z,3.72
2023-11-22T08:52:23.436Z,4.04
2023-11-22T08:54:50.165Z,3.83
2023-11-22T08:57:16.862Z,3.87
2023-11-22T08:59:43.561Z,3.53
2023-11-22T09:02:10.242Z,3.76
2023-11-22T09:04:36.850Z,3.73
2023-11-22T09:07:03.674Z,3.45
2023-11-22T09:09:30.213Z,3.94
2023-11-22T09:11:56.933Z,3.81
2023-11-22T09:14:23.638Z,3.77
2023-11-22T09:16:50.277Z,3.96
2023-11-22T09:19:16.918Z,3.83
2023-11-22T09:21:43.556Z,3.71
2023-11-22T09:24:10.171Z,3.83
2023-11-22T09:26:36.782Z,3.80
2023-11-22T09:29:03.425Z,3.99
2023-11-22T09:31:29.964Z,4.15
2023-11-22T09:33:56.578Z,4.02
2023-11-22T09:36:23.179Z,4.23
2023-11-22T09:38:49.836Z,3.92
2023-11-22T09:41:16.427Z,6.42
2023-11-22T09:43:43.193Z,8.33
2023-11-22T09:46:09.880Z,14.20
2023-11-22T09:48:36.494Z,4.59
2023-11-22T09:51:03.330Z,4.76
2023-11-22T09:53:29.915Z,4.02
2023-11-22T09:55:56.509Z,3.95
2023-11-22T09:58:23.099Z,4.00
2023-11-22T10:00:49.782Z,4.63
2023-11-22T10:03:16.558Z,3.55
2023-11-22T10:05:43.353Z,3.07
2023-11-22T10:08:10.016Z,3.04
2023-11-22T10:10:36.570Z,3.09
2023-11-22T10:13:03.144Z,3.05
2023-11-22T10:15:29.741Z,3.19
2023-11-22T10:17:56.536Z,3.33
2023-11-22T10:20:23.223Z,3.78
2023-11-22T10:22:49.822Z,3.41
2023-11-22T10:25:16.451Z,3.45
2023-11-22T10:27:43.036Z,3.88
2023-11-22T10:30:09.609Z,3.78
2023-11-22T10:32:36.345Z,3.78
2023-11-22T10:35:03.497Z,3.65
2023-11-22T10:37:30.070Z,3.21
2023-11-22T10:39:56.852Z,4.63
2023-11-22T10:42:23.542Z,5.45
2023-11-22T10:44:50.199Z,3.84
2023-11-22T10:47:16.873Z,5.73
2023-11-22T10:49:43.493Z,3.88
2023-11-22T10:52:10.083Z,4.11
2023-11-22T10:54:36.694Z,3.96
2023-11-22T10:57:03.669Z,3.42
2023-11-22T10:59:30.291Z,3.92
2023-11-22T11:01:56.978Z,3.46
2023-11-22T11:04:23.667Z,3.80
2023-11-22T11:06:50.353Z,4.74
2023-11-22T11:09:16.929Z,3.92
2023-11-22T11:11:43.634Z,3.11
2023-11-22T11:14:10.292Z,2.98
2023-11-22T11:16:36.939Z,3.74
2023-11-22T11:19:03.586Z,3.60
2023-11-22T11:21:30.702Z,3.56
2023-11-22T11:23:59.403Z,2.91
2023-11-22T11:26:26.383Z,2.49
2023-11-22T11:28:53.667Z,2.42
2023-11-22T11:31:20.761Z,2.84
2023-11-22T11:33:47.527Z,2.79
2023-11-22T11:36:15.813Z,4.14
2023-11-22T11:38:42.888Z,6.14
2023-11-22T11:41:09.764Z,3.96
2023-11-22T11:43:36.346Z,2.87
2023-11-22T11:46:02.975Z,2.64
2023-11-22T11:48:29.742Z,2.51
2023-11-22T11:50:56.529Z,3.09
2023-11-22T11:53:23.196Z,3.84
2023-11-22T11:55:49.968Z,3.02
2023-11-22T11:58:16.577Z,2.60
2023-11-22T12:00:43.185Z,2.47
2023-11-22T12:03:10.018Z,3.71
2023-11-22T12:05:36.690Z,2.52
2023-11-22T12:08:03.311Z,2.39
2023-11-22T12:10:32.915Z,2.48
2023-11-22T12:12:59.533Z,2.41
2023-11-22T12:15:26.119Z,2.43
2023-11-22T12:17:52.990Z,2.38
2023-11-22T12:20:20.634Z,2.42
2023-11-22T12:22:47.861Z,2.16
2023-11-22T12:25:14.458Z,2.46
2023-11-22T12:27:41.013Z,2.85
2023-11-22T12:30:07.724Z,8.45
2023-11-22T12:32:34.522Z,18.25
2023-11-22T12:35:01.129Z,20.30
2023-11-22T12:37:27.776Z,51.67
2023-11-22T12:39:54.391Z,13.77
2023-11-22T12:42:21.044Z,6.07
2023-11-22T12:44:47.772Z,4.52
2023-11-22T12:47:14.452Z,3.42
2023-11-22T12:49:41.067Z,2.87
2023-11-22T12:52:08.657Z,2.35
2023-11-22T12:54:35.296Z,2.28
2023-11-22T12:57:04.329Z,2.33
2023-11-22T12:59:31.326Z,2.32
2023-11-22T13:01:58.071Z,2.58
2023-11-22T13:04:25.138Z,2.53
2023-11-22T13:06:52.028Z,2.21
2023-11-22T13:09:18.615Z,2.33
2023-11-22T13:11:45.305Z,2.32
2023-11-22T13:14:12.117Z,2.25
2023-11-22T13:16:38.732Z,2.09
2023-11-22T13:19:05.403Z,2.03
2023-11-22T13:21:32.100Z,2.18
2023-11-22T13:23:58.726Z,2.09
2023-11-22T13:26:25.378Z,1.98
2023-11-22T13:28:53.571Z,2.33
2023-11-22T13:31:20.186Z,2.14
2023-11-22T13:33:46.777Z,2.90
2023-11-22T13:36:13.366Z,3.52
2023-11-22T13:38:40.015Z,1.93
2023-11-22T13:41:06.756Z,1.81
2023-11-22T13:43:33.469Z,1.65
2023-11-22T13:46:00.136Z,1.89
2023-11-22T13:48:27.040Z,2.31
2023-11-22T13:50:53.761Z,2.40
2023-11-22T13:53:20.434Z,1.97
2023-11-22T13:55:47.119Z,1.62
2023-11-22T13:58:13.832Z,1.77
2023-11-22T14:00:40.373Z,1.58
2023-11-22T14:03:07.871Z,1.55
2023-11-22T14:05:35.217Z,1.63
2023-11-22T14:08:01.926Z,1.71
2023-11-22T14:10:28.510Z,1.72
2023-11-22T14:12:55.127Z,1.68
2023-11-22T14:15:21.769Z,1.83
2023-11-22T14:17:48.406Z,1.56
2023-11-22T14:20:16.721Z,1.62
2023-11-22T14:22:44.317Z,1.69
2023-11-22T14:25:11.009Z,1.83
2023-11-22T14:27:37.758Z,1.98
2023-11-22T14:30:04.400Z,1.72
2023-11-22T14:32:30.976Z,1.62
2023-11-22T14:34:57.649Z,1.66
2023-11-22T14:37:24.260Z,1.73
2023-11-22T14:39:50.895Z,1.61
2023-11-22T14:42:17.525Z,1.49
2023-11-22T14:44:44.212Z,1.68
2023-11-22T14:47:10.795Z,1.73
2023-11-22T14:49:43.822Z,1.50
2023-11-22T14:52:14.017Z,1.56
2023-11-22T14:54:40.670Z,1.71
2023-11-22T14:57:07.291Z,1.87
2023-11-22T14:59:33.915Z,2.02
2023-11-22T15:02:00.583Z,2.01
2023-11-22T15:04:27.221Z,2.09
2023-11-22T15:06:53.830Z,2.05
2023-11-22T15:09:20.432Z,2.03
2023-11-22T15:11:47.102Z,2.15
2023-11-22T15:14:13.709Z,2.32
2023-11-22T15:16:40.349Z,2.49
2023-11-22T15:19:07.034Z,2.42
2023-11-22T15:21:33.596Z,2.68
2023-11-22T15:24:00.247Z,2.67
2023-11-22T15:26:26.855Z,2.96
2023-11-22T15:28:53.420Z,3.70
2023-11-22T15:31:20.112Z,3.81
2023-11-22T15:33:46.849Z,3.21
2023-11-22T15:36:13.517Z,2.80
2023-11-22T15:38:40.309Z,2.66
2023-11-22T15:41:12.657Z,2.92
2023-11-22T15:43:43.008Z,3.11
2023-11-22T15:46:09.594Z,3.03
2023-11-22T15:48:36.321Z,3.19
2023-11-22T15:51:03.021Z,3.62
2023-11-22T15:53:29.679Z,3.59
2023-11-22T15:55:56.300Z,3.58
2023-11-22T15:58:22.970Z,3.68
2023-11-22T16:00:51.548Z,4.10
2023-11-22T16:03:18.349Z,4.22
2023-11-22T16:05:45.197Z,4.11
2023-11-22T16:08:11.755Z,4.36
2023-11-22T16:10:38.352Z,4.42
2023-11-22T16:13:05.001Z,4.54
2023-11-22T16:15:31.594Z,4.30
2023-11-22T16:17:58.271Z,5.12
2023-11-22T16:20:25.087Z,4.85
2023-11-22T16:22:54.680Z,4.94
2023-11-22T16:25:22.350Z,4.93
2023-11-22T16:27:48.952Z,5.08
2023-11-22T16:30:15.536Z,4.89
2023-11-22T16:32:42.242Z,5.14
2023-11-22T16:35:08.925Z,4.88
2023-11-22T16:37:35.623Z,4.96
2023-11-22T16:40:02.357Z,5.24
2023-11-22T16:42:28.954Z,5.63
2023-11-22T16:44:55.552Z,5.48
2023-11-22T16:47:22.152Z,6.16
2023-11-22T16:49:48.708Z,7.69
2023-11-22T16:52:15.315Z,6.54
2023-11-22T16:54:42.256Z,6.14
2023-11-22T16:57:08.871Z,6.25
2023-11-22T16:59:35.501Z,5.80
2023-11-22T17:02:02.100Z,5.67
2023-11-22T17:04:28.950Z,5.92
2023-11-22T17:06:55.557Z,6.25
2023-11-22T17:09:22.152Z,6.36
2023-11-22T17:11:48.763Z,6.32
2023-11-22T17:14:15.417Z,6.34
2023-11-22T17:16:42.045Z,6.21
2023-11-22T17:19:08.696Z,6.73
2023-11-22T17:21:35.308Z,7.52
2023-11-22T17:24:01.947Z,7.38
2023-11-22T17:26:28.702Z,7.62
2023-11-22T17:28:55.359Z,7.05
2023-11-22T17:31:22.067Z,6.62
2023-11-22T17:33:48.824Z,7.60
2023-11-22T17:36:19.056Z,7.24
2023-11-22T17:38:49.404Z,6.96
2023-11-22T17:41:16.514Z,6.64
2023-11-22T17:43:43.171Z,6.67
2023-11-22T17:46:10.789Z,6.30
2023-11-22T17:48:40.453Z,7.25
2023-11-22T17:51:07.156Z,6.88
2023-11-22T17:53:33.800Z,7.57
2023-11-22T17:56:00.431Z,6.66
2023-11-22T17:58:26.988Z,7.41
2023-11-22T18:00:53.588Z,6.78
2023-11-22T18:03:20.347Z,7.85
2023-11-22T18:05:47.062Z,7.60
2023-11-22T18:08:13.700Z,6.94
2023-11-22T18:10:46.411Z,7.42
2023-11-22T18:13:15.927Z,7.45
2023-11-22T18:15:43.551Z,6.84
2023-11-22T18:18:10.266Z,7.04
2023-11-22T18:20:36.952Z,6.67
2023-11-22T18:23:07.285Z,6.74
2023-11-22T18:25:37.105Z,7.34
2023-11-22T18:28:03.699Z,7.79
2023-11-22T18:30:30.292Z,7.13
2023-11-22T18:32:56.957Z,7.62
2023-11-22T18:35:23.765Z,8.33
2023-11-22T18:37:50.372Z,7.78
2023-11-22T18:40:18.267Z,8.20
2023-11-22T18:45:27.236Z,7.88
2023-11-22T18:47:53.869Z,7.82
2023-11-22T18:50:21.593Z,8.05
2023-11-22T18:52:48.431Z,8.12
2023-11-22T18:55:15.061Z,8.07
2023-11-22T18:57:41.717Z,8.12
2023-11-22T19:00:08.454Z,8.68
2023-11-22T19:02:35.236Z,8.79
2023-11-22T19:05:01.887Z,8.66
2023-11-22T19:07:28.465Z,8.98
2023-11-22T19:09:55.446Z,9.61
2023-11-22T19:12:22.343Z,9.07
2023-11-22T19:14:49.138Z,10.04
2023-11-22T19:17:15.808Z,10.66
2023-11-22T19:19:42.420Z,8.17
2023-11-22T19:22:09.076Z,8.60
2023-11-22T19:24:35.686Z,8.72
2023-11-22T19:27:02.361Z,8.89
2023-11-22T19:29:29.002Z,8.37
2023-11-22T19:31:55.716Z,8.70
2023-11-22T19:34:22.316Z,8.74
2023-11-22T19:36:48.970Z,8.56
2023-11-22T19:39:15.737Z,8.87
2023-11-22T19:41:44.717Z,9.15
2023-11-22T19:44:11.302Z,8.97
2023-11-22T19:46:40.044Z,8.80
2023-11-22T19:49:07.936Z,9.49
2023-11-22T19:51:35.057Z,9.15
2023-11-22T19:54:01.725Z,8.99
2023-11-22T19:56:28.639Z,11.33
2023-11-22T19:58:55.519Z,8.79
2023-11-22T20:01:22.158Z,12.65
2023-11-22T20:03:48.897Z,10.59
2023-11-22T20:06:15.623Z,9.14
2023-11-22T20:08:42.375Z,9.50
2023-11-22T20:11:09.021Z,10.67
2023-11-22T20:13:35.720Z,10.95
2023-11-22T20:16:02.334Z,12.81
2023-11-22T20:18:29.108Z,11.53
2023-11-22T20:20:55.844Z,10.21
2023-11-22T20:23:22.578Z,10.10
2023-11-22T20:25:49.220Z,10.16
2023-11-22T20:28:18.720Z,11.16
2023-11-22T20:30:45.288Z,10.85
2023-11-22T20:33:12.044Z,10.78
2023-11-22T20:35:40.081Z,11.24
2023-11-22T20:38:07.264Z,11.38
2023-11-22T20:40:33.901Z,11.26
2023-11-22T20:43:00.697Z,11.01
2023-11-22T20:45:27.316Z,10.19
2023-11-22T20:47:53.931Z,10.56
2023-11-22T20:50:20.627Z,11.23
2023-11-22T20:52:47.208Z,9.79
2023-11-22T20:55:13.895Z,9.81
2023-11-22T20:57:41.015Z,9.49
2023-11-22T21:00:07.724Z,9.52
2023-11-22T21:02:36.637Z,10.67
2023-11-22T21:05:04.952Z,10.10
2023-11-22T21:07:31.506Z,9.60
2023-11-22T21:09:58.155Z,9.47
2023-11-22T21:12:24.895Z,9.35
2023-11-22T21:14:51.547Z,9.88
2023-11-22T21:17:18.192Z,9.66
2023-11-22T21:19:44.786Z,9.73
2023-11-22T21:22:11.344Z,9.64
2023-11-22T21:24:37.934Z,9.94
2023-11-22T21:27:04.616Z,10.26
2023-11-22T21:29:31.349Z,10.39
2023-11-22T21:31:58.032Z,10.06
2023-11-22T21:34:24.655Z,10.06
2023-11-22T21:36:51.262Z,9.62
2023-11-22T21:39:17.911Z,9.68
2023-11-22T21:41:44.560Z,9.67
2023-11-22T21:44:11.126Z,10.16
2023-11-22T21:46:37.711Z,10.07
2023-11-22T21:49:04.437Z,10.02
2023-11-22T21:51:31.062Z,10.66
2023-11-22T21:53:57.719Z,10.25
2023-11-22T21:56:24.346Z,10.31
2023-11-22T21:58:50.946Z,9.98
2023-11-22T22:01:17.567Z,10.03
2023-11-22T22:03:44.242Z,10.01
2023-11-22T22:06:11.010Z,9.89
2023-11-22T22:08:37.866Z,10.60
2023-11-22T22:11:04.554Z,9.80
2023-11-22T22:13:31.256Z,10.33
2023-11-22T22:15:57.883Z,10.22
2023-11-22T22:18:27.575Z,10.01
2023-11-22T22:20:56.226Z,9.70
2023-11-22T22:23:23.037Z,10.41
2023-11-22T22:25:49.613Z,10.30
2023-11-22T22:28:16.242Z,10.09
2023-11-22T22:30:42.946Z,9.77
2023-11-22T22:33:09.719Z,9.91
2023-11-22T22:35:36.433Z,9.82
2023-11-22T22:38:03.170Z,10.02
2023-11-22T22:40:29.778Z,10.28
2023-11-22T22:42:56.523Z,10.31
2023-11-22T22:45:23.125Z,10.10
2023-11-22T22:47:50.207Z,10.27
2023-11-22T22:50:17.322Z,10.10
2023-11-22T22:52:44.162Z,10.19
2023-11-22T22:55:10.717Z,10.24
2023-11-22T22:57:37.344Z,10.35
2023-11-22T23:00:03.984Z,10.26
2023-11-22T23:02:30.711Z,10.56
2023-11-22T23:04:57.355Z,10.40
2023-11-22T23:07:23.937Z,10.69
2023-11-22T23:09:50.590Z,10.69
2023-11-22T23:12:17.219Z,11.14
2023-11-22T23:14:43.934Z,10.42
2023-11-22T23:17:10.604Z,10.57
2023-11-22T23:19:37.216Z,11.38
2023-11-22T23:22:03.996Z,11.44
2023-11-22T23:24:30.657Z,11.44
2023-11-22T23:26:58.596Z,11.04
2023-11-22T23:29:25.303Z,11.51
2023-11-22T23:31:51.892Z,11.35
2023-11-22T23:34:18.519Z,11.35
2023-11-22T23:36:45.091Z,11.69
2023-11-22T23:39:11.743Z,11.41
2023-11-22T23:41:38.428Z,11.72
2023-11-22T23:44:05.017Z,11.86
2023-11-22T23:46:31.698Z,11.89
2023-11-22T23:48:58.338Z,11.16
2023-11-22T23:51:24.931Z,11.06
2023-11-22T23:53:51.627Z,11.01
2023-11-22T23:56:18.475Z,10.60
2023-11-22T23:58:45.229Z,10.50
